sensor_id;sensor_type;location;lat;lon;timestamp;P1;durP1;ratioP1;P2;durP2;ratioP2
7080;SDS011;3582;51.506;11.948;2023-05-27T00:00:20;12.60;;;5.90;;
7080;SDS011;3582;51.506;11.948;2023-05-27T00:02:46;16.33;;;6.90;;
7080;SDS011;3582;51.506;11.948;2023-05-27T00:05:12;12.00;;;7.10;;
7080;SDS011;3582;51.506;11.948;2023-05-27T00:07:38;13.13;;;8.47;;
7080;SDS011;3582;51.506;11.948;2023-05-27T00:10:04;14.30;;;9.80;;
7080;SDS011;3582;51.506;11.948;2023-05-27T00:12:30;10.97;;;7.10;;
7080;SDS011;3582;51.506;11.948;2023-05-27T00:14:56;13.97;;;8.23;;
7080;SDS011;3582;51.506;11.948;2023-05-27T00:17:22;15.33;;;6.70;;
7080;SDS011;3582;51.506;11.948;2023-05-27T00:19:48;29.03;;;9.47;;
7080;SDS011;3582;51.506;11.948;2023-05-27T00:22:14;14.60;;;6.87;;
7080;SDS011;3582;51.506;11.948;2023-05-27T00:24:41;15.10;;;10.25;;
7080;SDS011;3582;51.506;11.948;2023-05-27T00:27:07;12.27;;;7.53;;
7080;SDS011;3582;51.506;11.948;2023-05-27T00:29:33;17.42;;;8.32;;
7080;SDS011;3582;51.506;11.948;2023-05-27T00:32:00;19.15;;;8.60;;
7080;SDS011;3582;51.506;11.948;2023-05-27T00:34:27;8.40;;;7.18;;
7080;SDS011;3582;51.506;11.948;2023-05-27T00:36:53;13.95;;;7.75;;
7080;SDS011;3582;51.506;11.948;2023-05-27T00:39:19;13.40;;;7.20;;
7080;SDS011;3582;51.506;11.948;2023-05-27T00:41:47;13.93;;;7.20;;
7080;SDS011;3582;51.506;11.948;2023-05-27T00:44:14;14.80;;;7.05;;
7080;SDS011;3582;51.506;11.948;2023-05-27T00:46:40;18.63;;;7.77;;
7080;SDS011;3582;51.506;11.948;2023-05-27T00:49:06;16.87;;;9.10;;
7080;SDS011;3582;51.506;11.948;2023-05-27T00:51:32;17.00;;;7.93;;
7080;SDS011;3582;51.506;11.948;2023-05-27T00:53:58;9.82;;;6.18;;
7080;SDS011;3582;51.506;11.948;2023-05-27T00:56:24;9.52;;;7.82;;
7080;SDS011;3582;51.506;11.948;2023-05-27T00:58:51;18.57;;;7.40;;
7080;SDS011;3582;51.506;11.948;2023-05-27T01:01:17;20.92;;;9.38;;
7080;SDS011;3582;51.506;11.948;2023-05-27T01:03:44;14.95;;;8.20;;
7080;SDS011;3582;51.506;11.948;2023-05-27T01:11:25;20.35;;;6.88;;
7080;SDS011;3582;51.506;11.948;2023-05-27T01:13:56;18.33;;;7.63;;
7080;SDS011;3582;51.506;11.948;2023-05-27T01:16:24;10.45;;;7.38;;
7080;SDS011;3582;51.506;11.948;2023-05-27T01:18:51;11.98;;;8.20;;
7080;SDS011;3582;51.506;11.948;2023-05-27T01:21:20;15.55;;;7.75;;
7080;SDS011;3582;51.506;11.948;2023-05-27T01:23:50;15.45;;;7.70;;
7080;SDS011;3582;51.506;11.948;2023-05-27T01:26:16;10.02;;;7.38;;
7080;SDS011;3582;51.506;11.948;2023-05-27T01:28:42;12.40;;;8.33;;
7080;SDS011;3582;51.506;11.948;2023-05-27T01:31:25;15.40;;;7.15;;
7080;SDS011;3582;51.506;11.948;2023-05-27T01:33:58;9.90;;;7.70;;
7080;SDS011;3582;51.506;11.948;2023-05-27T01:36:26;21.42;;;8.07;;
7080;SDS011;3582;51.506;11.948;2023-05-27T01:38:53;13.70;;;7.03;;
7080;SDS011;3582;51.506;11.948;2023-05-27T01:41:21;16.92;;;9.52;;
7080;SDS011;3582;51.506;11.948;2023-05-27T01:43:47;18.55;;;7.95;;
7080;SDS011;3582;51.506;11.948;2023-05-27T01:46:13;9.37;;;6.90;;
7080;SDS011;3582;51.506;11.948;2023-05-27T01:48:40;24.65;;;8.18;;
7080;SDS011;3582;51.506;11.948;2023-05-27T01:51:06;23.90;;;8.50;;
7080;SDS011;3582;51.506;11.948;2023-05-27T01:53:32;9.20;;;7.13;;
7080;SDS011;3582;51.506;11.948;2023-05-27T01:55:57;13.50;;;7.90;;
7080;SDS011;3582;51.506;11.948;2023-05-27T01:58:23;10.03;;;7.00;;
7080;SDS011;3582;51.506;11.948;2023-05-27T02:00:49;8.97;;;7.90;;
7080;SDS011;3582;51.506;11.948;2023-05-27T02:03:16;13.63;;;7.20;;
7080;SDS011;3582;51.506;11.948;2023-05-27T02:05:41;15.17;;;7.60;;
7080;SDS011;3582;51.506;11.948;2023-05-27T02:08:08;15.63;;;8.30;;
7080;SDS011;3582;51.506;11.948;2023-05-27T02:10:34;15.60;;;7.40;;
7080;SDS011;3582;51.506;11.948;2023-05-27T02:13:00;19.70;;;8.87;;
7080;SDS011;3582;51.506;11.948;2023-05-27T02:15:25;19.70;;;7.87;;
7080;SDS011;3582;51.506;11.948;2023-05-27T02:17:51;15.03;;;8.17;;
7080;SDS011;3582;51.506;11.948;2023-05-27T02:20:21;13.75;;;7.70;;
7080;SDS011;3582;51.506;11.948;2023-05-27T02:22:47;11.02;;;7.38;;
7080;SDS011;3582;51.506;11.948;2023-05-27T02:25:13;13.48;;;7.18;;
7080;SDS011;3582;51.506;11.948;2023-05-27T02:27:39;16.03;;;7.73;;
7080;SDS011;3582;51.506;11.948;2023-05-27T02:30:07;12.60;;;7.50;;
7080;SDS011;3582;51.506;11.948;2023-05-27T02:32:33;13.60;;;7.88;;
7080;SDS011;3582;51.506;11.948;2023-05-27T02:34:59;10.67;;;6.50;;
7080;SDS011;3582;51.506;11.948;2023-05-27T02:37:25;34.67;;;10.87;;
7080;SDS011;3582;51.506;11.948;2023-05-27T02:39:52;20.13;;;8.45;;
7080;SDS011;3582;51.506;11.948;2023-05-27T02:42:19;15.85;;;6.60;;
7080;SDS011;3582;51.506;11.948;2023-05-27T02:44:45;10.50;;;8.10;;
7080;SDS011;3582;51.506;11.948;2023-05-27T02:47:11;14.73;;;8.10;;
7080;SDS011;3582;51.506;11.948;2023-05-27T02:49:37;15.50;;;7.37;;
7080;SDS011;3582;51.506;11.948;2023-05-27T02:52:03;13.30;;;6.97;;
7080;SDS011;3582;51.506;11.948;2023-05-27T02:54:29;15.75;;;7.55;;
7080;SDS011;3582;51.506;11.948;2023-05-27T02:56:55;14.53;;;7.20;;
7080;SDS011;3582;51.506;11.948;2023-05-27T02:59:21;11.10;;;7.33;;
7080;SDS011;3582;51.506;11.948;2023-05-27T03:01:47;16.77;;;7.90;;
7080;SDS011;3582;51.506;11.948;2023-05-27T03:04:12;18.57;;;8.07;;
7080;SDS011;3582;51.506;11.948;2023-05-27T03:06:38;16.57;;;9.13;;
7080;SDS011;3582;51.506;11.948;2023-05-27T03:09:05;14.93;;;7.53;;
7080;SDS011;3582;51.506;11.948;2023-05-27T03:11:32;15.23;;;8.07;;
7080;SDS011;3582;51.506;11.948;2023-05-27T03:13:58;17.70;;;6.73;;
7080;SDS011;3582;51.506;11.948;2023-05-27T03:16:24;11.80;;;7.23;;
7080;SDS011;3582;51.506;11.948;2023-05-27T03:18:50;10.67;;;6.73;;
7080;SDS011;3582;51.506;11.948;2023-05-27T03:21:16;11.27;;;6.95;;
7080;SDS011;3582;51.506;11.948;2023-05-27T03:23:42;14.53;;;6.77;;
7080;SDS011;3582;51.506;11.948;2023-05-27T03:26:08;14.47;;;8.37;;
7080;SDS011;3582;51.506;11.948;2023-05-27T03:28:34;26.37;;;10.63;;
7080;SDS011;3582;51.506;11.948;2023-05-27T03:31:00;14.60;;;8.03;;
7080;SDS011;3582;51.506;11.948;2023-05-27T03:33:26;13.07;;;6.85;;
7080;SDS011;3582;51.506;11.948;2023-05-27T03:35:52;13.13;;;7.73;;
7080;SDS011;3582;51.506;11.948;2023-05-27T03:38:18;16.80;;;6.57;;
7080;SDS011;3582;51.506;11.948;2023-05-27T03:40:44;14.47;;;7.50;;
7080;SDS011;3582;51.506;11.948;2023-05-27T03:43:09;13.30;;;7.10;;
7080;SDS011;3582;51.506;11.948;2023-05-27T03:45:35;10.13;;;8.00;;
7080;SDS011;3582;51.506;11.948;2023-05-27T03:48:01;11.97;;;6.93;;
7080;SDS011;3582;51.506;11.948;2023-05-27T03:50:27;12.03;;;6.83;;
7080;SDS011;3582;51.506;11.948;2023-05-27T03:52:53;14.27;;;6.20;;
7080;SDS011;3582;51.506;11.948;2023-05-27T03:55:19;15.00;;;7.13;;
7080;SDS011;3582;51.506;11.948;2023-05-27T03:57:46;13.65;;;7.60;;
7080;SDS011;3582;51.506;11.948;2023-05-27T04:00:12;12.00;;;6.22;;
7080;SDS011;3582;51.506;11.948;2023-05-27T04:02:38;17.23;;;8.02;;
7080;SDS011;3582;51.506;11.948;2023-05-27T04:05:05;15.57;;;7.20;;
7080;SDS011;3582;51.506;11.948;2023-05-27T04:07:31;18.30;;;8.02;;
7080;SDS011;3582;51.506;11.948;2023-05-27T04:09:57;15.13;;;7.95;;
7080;SDS011;3582;51.506;11.948;2023-05-27T04:12:23;9.45;;;7.55;;
7080;SDS011;3582;51.506;11.948;2023-05-27T04:14:49;11.68;;;7.00;;
7080;SDS011;3582;51.506;11.948;2023-05-27T04:17:15;17.80;;;8.02;;
7080;SDS011;3582;51.506;11.948;2023-05-27T04:19:42;18.48;;;7.18;;
7080;SDS011;3582;51.506;11.948;2023-05-27T04:22:08;16.58;;;7.93;;
7080;SDS011;3582;51.506;11.948;2023-05-27T04:24:34;18.80;;;7.43;;
7080;SDS011;3582;51.506;11.948;2023-05-27T04:27:00;11.33;;;7.70;;
7080;SDS011;3582;51.506;11.948;2023-05-27T04:29:28;14.32;;;8.20;;
7080;SDS011;3582;51.506;11.948;2023-05-27T04:31:56;13.23;;;7.60;;
7080;SDS011;3582;51.506;11.948;2023-05-27T04:34:23;15.73;;;8.05;;
7080;SDS011;3582;51.506;11.948;2023-05-27T04:36:49;11.02;;;7.20;;
7080;SDS011;3582;51.506;11.948;2023-05-27T04:39:15;9.90;;;8.00;;
7080;SDS011;3582;51.506;11.948;2023-05-27T04:41:42;11.32;;;7.60;;
7080;SDS011;3582;51.506;11.948;2023-05-27T04:44:08;16.95;;;8.10;;
7080;SDS011;3582;51.506;11.948;2023-05-27T04:46:34;14.88;;;7.97;;
7080;SDS011;3582;51.506;11.948;2023-05-27T04:49:00;10.88;;;7.97;;
7080;SDS011;3582;51.506;11.948;2023-05-27T04:51:26;13.30;;;7.70;;
7080;SDS011;3582;51.506;11.948;2023-05-27T04:53:52;11.53;;;6.90;;
7080;SDS011;3582;51.506;11.948;2023-05-27T04:56:19;13.95;;;7.20;;
7080;SDS011;3582;51.506;11.948;2023-05-27T04:58:45;11.75;;;6.47;;
7080;SDS011;3582;51.506;11.948;2023-05-27T05:01:13;19.17;;;7.85;;
7080;SDS011;3582;51.506;11.948;2023-05-27T05:03:45;13.50;;;7.90;;
7080;SDS011;3582;51.506;11.948;2023-05-27T05:06:21;17.17;;;7.88;;
7080;SDS011;3582;51.506;11.948;2023-05-27T05:08:48;13.35;;;6.60;;
7080;SDS011;3582;51.506;11.948;2023-05-27T05:11:14;14.55;;;7.22;;
7080;SDS011;3582;51.506;11.948;2023-05-27T05:13:40;13.15;;;7.15;;
7080;SDS011;3582;51.506;11.948;2023-05-27T05:16:06;13.23;;;8.00;;
7080;SDS011;3582;51.506;11.948;2023-05-27T05:18:32;13.30;;;6.80;;
7080;SDS011;3582;51.506;11.948;2023-05-27T05:20:58;18.10;;;7.33;;
7080;SDS011;3582;51.506;11.948;2023-05-27T05:23:23;15.83;;;8.30;;
7080;SDS011;3582;51.506;11.948;2023-05-27T05:25:50;9.60;;;6.80;;
7080;SDS011;3582;51.506;11.948;2023-05-27T05:28:21;10.83;;;6.40;;
7080;SDS011;3582;51.506;11.948;2023-05-27T05:30:47;12.13;;;6.90;;
7080;SDS011;3582;51.506;11.948;2023-05-27T05:33:13;14.87;;;7.50;;
7080;SDS011;3582;51.506;11.948;2023-05-27T05:35:39;14.17;;;5.97;;
7080;SDS011;3582;51.506;11.948;2023-05-27T05:38:05;15.97;;;7.50;;
7080;SDS011;3582;51.506;11.948;2023-05-27T05:40:31;9.80;;;6.60;;
7080;SDS011;3582;51.506;11.948;2023-05-27T05:42:57;12.97;;;6.27;;
7080;SDS011;3582;51.506;11.948;2023-05-27T05:45:23;7.80;;;6.93;;
7080;SDS011;3582;51.506;11.948;2023-05-27T05:47:50;12.13;;;6.60;;
7080;SDS011;3582;51.506;11.948;2023-05-27T05:50:16;11.10;;;7.73;;
7080;SDS011;3582;51.506;11.948;2023-05-27T05:52:42;12.93;;;8.27;;
7080;SDS011;3582;51.506;11.948;2023-05-27T05:55:08;14.97;;;7.07;;
7080;SDS011;3582;51.506;11.948;2023-05-27T05:57:34;8.40;;;6.33;;
7080;SDS011;3582;51.506;11.948;2023-05-27T06:00:00;15.33;;;6.30;;
7080;SDS011;3582;51.506;11.948;2023-05-27T06:02:26;10.00;;;6.37;;
7080;SDS011;3582;51.506;11.948;2023-05-27T06:04:52;15.40;;;7.57;;
7080;SDS011;3582;51.506;11.948;2023-05-27T06:07:18;9.70;;;5.93;;
7080;SDS011;3582;51.506;11.948;2023-05-27T06:09:44;11.43;;;6.53;;
7080;SDS011;3582;51.506;11.948;2023-05-27T06:12:10;15.13;;;7.30;;
7080;SDS011;3582;51.506;11.948;2023-05-27T06:14:36;8.33;;;6.73;;
7080;SDS011;3582;51.506;11.948;2023-05-27T06:17:01;13.20;;;7.03;;
7080;SDS011;3582;51.506;11.948;2023-05-27T06:19:27;17.67;;;7.97;;
7080;SDS011;3582;51.506;11.948;2023-05-27T06:21:53;12.80;;;6.77;;
7080;SDS011;3582;51.506;11.948;2023-05-27T06:24:19;11.53;;;6.17;;
7080;SDS011;3582;51.506;11.948;2023-05-27T06:26:45;10.57;;;7.30;;
7080;SDS011;3582;51.506;11.948;2023-05-27T06:29:11;14.90;;;7.03;;
7080;SDS011;3582;51.506;11.948;2023-05-27T06:31:37;12.03;;;7.07;;
7080;SDS011;3582;51.506;11.948;2023-05-27T06:34:03;12.53;;;6.43;;
7080;SDS011;3582;51.506;11.948;2023-05-27T06:36:29;11.87;;;8.43;;
7080;SDS011;3582;51.506;11.948;2023-05-27T06:38:55;9.30;;;7.20;;
7080;SDS011;3582;51.506;11.948;2023-05-27T06:41:22;12.93;;;7.37;;
7080;SDS011;3582;51.506;11.948;2023-05-27T06:43:49;15.63;;;7.30;;
7080;SDS011;3582;51.506;11.948;2023-05-27T06:46:15;10.33;;;6.83;;
7080;SDS011;3582;51.506;11.948;2023-05-27T06:48:40;21.87;;;6.30;;
7080;SDS011;3582;51.506;11.948;2023-05-27T06:51:07;17.17;;;8.40;;
7080;SDS011;3582;51.506;11.948;2023-05-27T06:53:33;18.50;;;8.27;;
7080;SDS011;3582;51.506;11.948;2023-05-27T06:55:59;11.40;;;6.37;;
7080;SDS011;3582;51.506;11.948;2023-05-27T06:58:25;12.07;;;8.40;;
7080;SDS011;3582;51.506;11.948;2023-05-27T07:00:51;14.83;;;7.57;;
7080;SDS011;3582;51.506;11.948;2023-05-27T07:03:17;11.60;;;6.20;;
7080;SDS011;3582;51.506;11.948;2023-05-27T07:05:43;11.20;;;7.23;;
7080;SDS011;3582;51.506;11.948;2023-05-27T07:08:09;16.07;;;6.90;;
7080;SDS011;3582;51.506;11.948;2023-05-27T07:10:35;16.30;;;7.53;;
7080;SDS011;3582;51.506;11.948;2023-05-27T07:13:01;17.63;;;6.70;;
7080;SDS011;3582;51.506;11.948;2023-05-27T07:15:27;11.33;;;6.17;;
7080;SDS011;3582;51.506;11.948;2023-05-27T07:17:53;12.47;;;6.30;;
7080;SDS011;3582;51.506;11.948;2023-05-27T07:20:19;11.33;;;6.77;;
7080;SDS011;3582;51.506;11.948;2023-05-27T07:22:45;17.77;;;7.10;;
7080;SDS011;3582;51.506;11.948;2023-05-27T07:25:11;16.80;;;6.40;;
7080;SDS011;3582;51.506;11.948;2023-05-27T07:27:37;20.13;;;6.90;;
7080;SDS011;3582;51.506;11.948;2023-05-27T07:30:03;20.03;;;6.30;;
7080;SDS011;3582;51.506;11.948;2023-05-27T07:32:29;11.67;;;4.87;;
7080;SDS011;3582;51.506;11.948;2023-05-27T07:34:55;11.33;;;4.57;;
7080;SDS011;3582;51.506;11.948;2023-05-27T07:37:22;8.50;;;4.40;;
7080;SDS011;3582;51.506;11.948;2023-05-27T07:39:48;9.67;;;6.73;;
7080;SDS011;3582;51.506;11.948;2023-05-27T07:42:16;9.60;;;5.47;;
7080;SDS011;3582;51.506;11.948;2023-05-27T07:44:42;19.73;;;5.93;;
7080;SDS011;3582;51.506;11.948;2023-05-27T07:47:08;17.43;;;4.70;;
7080;SDS011;3582;51.506;11.948;2023-05-27T07:49:34;12.53;;;5.70;;
7080;SDS011;3582;51.506;11.948;2023-05-27T07:52:00;6.60;;;5.10;;
7080;SDS011;3582;51.506;11.948;2023-05-27T07:54:25;11.27;;;5.70;;
7080;SDS011;3582;51.506;11.948;2023-05-27T07:56:52;14.80;;;5.20;;
7080;SDS011;3582;51.506;11.948;2023-05-27T07:59:18;10.17;;;4.97;;
7080;SDS011;3582;51.506;11.948;2023-05-27T08:01:44;9.80;;;5.50;;
7080;SDS011;3582;51.506;11.948;2023-05-27T08:04:10;12.50;;;5.90;;
7080;SDS011;3582;51.506;11.948;2023-05-27T08:06:36;8.67;;;4.77;;
7080;SDS011;3582;51.506;11.948;2023-05-27T08:09:02;10.97;;;5.07;;
7080;SDS011;3582;51.506;11.948;2023-05-27T08:11:29;8.53;;;4.77;;
7080;SDS011;3582;51.506;11.948;2023-05-27T08:13:55;10.37;;;5.17;;
7080;SDS011;3582;51.506;11.948;2023-05-27T08:16:21;12.73;;;5.37;;
7080;SDS011;3582;51.506;11.948;2023-05-27T08:18:47;12.70;;;6.90;;
7080;SDS011;3582;51.506;11.948;2023-05-27T08:21:13;11.43;;;5.43;;
7080;SDS011;3582;51.506;11.948;2023-05-27T08:23:39;9.37;;;5.43;;
7080;SDS011;3582;51.506;11.948;2023-05-27T08:26:05;12.03;;;5.07;;
7080;SDS011;3582;51.506;11.948;2023-05-27T08:28:31;12.90;;;5.53;;
7080;SDS011;3582;51.506;11.948;2023-05-27T08:30:59;8.60;;;4.83;;
7080;SDS011;3582;51.506;11.948;2023-05-27T08:33:26;8.57;;;4.20;;
7080;SDS011;3582;51.506;11.948;2023-05-27T08:35:52;16.07;;;6.20;;
7080;SDS011;3582;51.506;11.948;2023-05-27T08:38:18;8.50;;;4.93;;
7080;SDS011;3582;51.506;11.948;2023-05-27T08:40:44;9.90;;;4.67;;
7080;SDS011;3582;51.506;11.948;2023-05-27T08:43:10;11.13;;;5.03;;
7080;SDS011;3582;51.506;11.948;2023-05-27T08:45:36;9.30;;;5.03;;
7080;SDS011;3582;51.506;11.948;2023-05-27T08:48:05;10.10;;;5.70;;
7080;SDS011;3582;51.506;11.948;2023-05-27T08:50:32;9.07;;;5.27;;
7080;SDS011;3582;51.506;11.948;2023-05-27T08:52:58;10.07;;;5.27;;
7080;SDS011;3582;51.506;11.948;2023-05-27T08:55:24;14.20;;;5.50;;
7080;SDS011;3582;51.506;11.948;2023-05-27T08:57:51;14.87;;;6.00;;
7080;SDS011;3582;51.506;11.948;2023-05-27T09:00:20;10.83;;;5.10;;
7080;SDS011;3582;51.506;11.948;2023-05-27T09:02:46;12.90;;;6.20;;
7080;SDS011;3582;51.506;11.948;2023-05-27T09:05:12;14.43;;;5.77;;
7080;SDS011;3582;51.506;11.948;2023-05-27T09:07:38;8.97;;;5.40;;
7080;SDS011;3582;51.506;11.948;2023-05-27T09:10:05;10.13;;;5.63;;
7080;SDS011;3582;51.506;11.948;2023-05-27T09:12:32;9.33;;;5.80;;
7080;SDS011;3582;51.506;11.948;2023-05-27T09:14:58;17.40;;;5.20;;
7080;SDS011;3582;51.506;11.948;2023-05-27T09:17:24;12.83;;;5.80;;
7080;SDS011;3582;51.506;11.948;2023-05-27T09:19:50;14.23;;;5.93;;
7080;SDS011;3582;51.506;11.948;2023-05-27T09:24:46;8.43;;;5.10;;
7080;SDS011;3582;51.506;11.948;2023-05-27T09:27:12;13.53;;;5.10;;
7080;SDS011;3582;51.506;11.948;2023-05-27T09:29:38;7.20;;;4.70;;
7080;SDS011;3582;51.506;11.948;2023-05-27T09:32:05;14.13;;;6.57;;
7080;SDS011;3582;51.506;11.948;2023-05-27T09:34:37;16.50;;;6.50;;
7080;SDS011;3582;51.506;11.948;2023-05-27T09:37:03;14.10;;;5.47;;
7080;SDS011;3582;51.506;11.948;2023-05-27T09:39:29;10.27;;;5.47;;
7080;SDS011;3582;51.506;11.948;2023-05-27T09:41:56;9.10;;;5.07;;
7080;SDS011;3582;51.506;11.948;2023-05-27T09:44:27;9.47;;;5.00;;
7080;SDS011;3582;51.506;11.948;2023-05-27T09:46:54;9.63;;;5.67;;
7080;SDS011;3582;51.506;11.948;2023-05-27T09:49:20;10.30;;;5.30;;
7080;SDS011;3582;51.506;11.948;2023-05-27T09:51:47;9.90;;;6.37;;
7080;SDS011;3582;51.506;11.948;2023-05-27T09:54:17;9.87;;;6.00;;
7080;SDS011;3582;51.506;11.948;2023-05-27T09:56:44;6.03;;;4.43;;
7080;SDS011;3582;51.506;11.948;2023-05-27T09:59:13;10.87;;;5.23;;
7080;SDS011;3582;51.506;11.948;2023-05-27T10:01:39;10.40;;;5.23;;
7080;SDS011;3582;51.506;11.948;2023-05-27T10:04:05;9.00;;;4.37;;
7080;SDS011;3582;51.506;11.948;2023-05-27T10:06:32;8.67;;;5.33;;
7080;SDS011;3582;51.506;11.948;2023-05-27T10:09:00;16.00;;;6.77;;
7080;SDS011;3582;51.506;11.948;2023-05-27T10:11:30;12.50;;;5.70;;
7080;SDS011;3582;51.506;11.948;2023-05-27T10:13:56;8.53;;;4.87;;
7080;SDS011;3582;51.506;11.948;2023-05-27T10:16:25;10.07;;;4.60;;
7080;SDS011;3582;51.506;11.948;2023-05-27T10:18:55;7.73;;;5.37;;
7080;SDS011;3582;51.506;11.948;2023-05-27T10:21:22;10.17;;;6.23;;
7080;SDS011;3582;51.506;11.948;2023-05-27T10:23:58;11.63;;;4.80;;
7080;SDS011;3582;51.506;11.948;2023-05-27T10:26:35;10.30;;;5.40;;
7080;SDS011;3582;51.506;11.948;2023-05-27T10:29:13;14.93;;;4.70;;
7080;SDS011;3582;51.506;11.948;2023-05-27T10:31:47;6.47;;;5.20;;
7080;SDS011;3582;51.506;11.948;2023-05-27T10:34:14;5.07;;;4.50;;
7080;SDS011;3582;51.506;11.948;2023-05-27T10:36:40;7.90;;;5.23;;
7080;SDS011;3582;51.506;11.948;2023-05-27T10:39:13;7.40;;;4.70;;
7080;SDS011;3582;51.506;11.948;2023-05-27T10:44:06;9.63;;;4.40;;
7080;SDS011;3582;51.506;11.948;2023-05-27T10:46:41;9.87;;;4.83;;
7080;SDS011;3582;51.506;11.948;2023-05-27T10:49:09;11.10;;;5.00;;
7080;SDS011;3582;51.506;11.948;2023-05-27T10:51:36;9.87;;;4.97;;
7080;SDS011;3582;51.506;11.948;2023-05-27T10:54:02;10.37;;;5.17;;
7080;SDS011;3582;51.506;11.948;2023-05-27T10:56:29;7.20;;;4.63;;
7080;SDS011;3582;51.506;11.948;2023-05-27T10:58:55;13.80;;;4.73;;
7080;SDS011;3582;51.506;11.948;2023-05-27T11:01:22;9.30;;;4.60;;
7080;SDS011;3582;51.506;11.948;2023-05-27T11:03:49;8.77;;;4.93;;
7080;SDS011;3582;51.506;11.948;2023-05-27T11:06:15;12.73;;;6.10;;
7080;SDS011;3582;51.506;11.948;2023-05-27T11:08:41;11.23;;;5.43;;
7080;SDS011;3582;51.506;11.948;2023-05-27T11:11:08;8.00;;;4.67;;
7080;SDS011;3582;51.506;11.948;2023-05-27T11:13:35;6.13;;;4.97;;
7080;SDS011;3582;51.506;11.948;2023-05-27T11:16:01;6.40;;;4.70;;
7080;SDS011;3582;51.506;11.948;2023-05-27T11:18:34;5.70;;;4.57;;
7080;SDS011;3582;51.506;11.948;2023-05-27T11:21:00;8.70;;;4.70;;
7080;SDS011;3582;51.506;11.948;2023-05-27T11:23:48;11.83;;;4.67;;
7080;SDS011;3582;51.506;11.948;2023-05-27T11:26:18;11.07;;;4.40;;
7080;SDS011;3582;51.506;11.948;2023-05-27T11:28:45;7.90;;;4.93;;
7080;SDS011;3582;51.506;11.948;2023-05-27T11:31:11;8.90;;;4.57;;
7080;SDS011;3582;51.506;11.948;2023-05-27T11:33:40;7.13;;;3.90;;
7080;SDS011;3582;51.506;11.948;2023-05-27T11:36:06;11.00;;;5.30;;
7080;SDS011;3582;51.506;11.948;2023-05-27T11:41:18;8.50;;;4.80;;
7080;SDS011;3582;51.506;11.948;2023-05-27T11:43:47;8.23;;;3.60;;
7080;SDS011;3582;51.506;11.948;2023-05-27T11:46:13;6.37;;;4.70;;
7080;SDS011;3582;51.506;11.948;2023-05-27T11:48:39;7.33;;;4.63;;
7080;SDS011;3582;51.506;11.948;2023-05-27T11:51:05;10.30;;;4.80;;
7080;SDS011;3582;51.506;11.948;2023-05-27T11:53:31;9.90;;;4.30;;
7080;SDS011;3582;51.506;11.948;2023-05-27T11:55:59;11.33;;;6.00;;
7080;SDS011;3582;51.506;11.948;2023-05-27T11:58:25;12.10;;;6.40;;
7080;SDS011;3582;51.506;11.948;2023-05-27T12:00:51;6.27;;;4.37;;
7080;SDS011;3582;51.506;11.948;2023-05-27T12:03:17;5.50;;;4.53;;
7080;SDS011;3582;51.506;11.948;2023-05-27T12:05:43;6.63;;;4.10;;
7080;SDS011;3582;51.506;11.948;2023-05-27T12:08:09;6.37;;;3.83;;
7080;SDS011;3582;51.506;11.948;2023-05-27T12:10:35;9.27;;;4.93;;
7080;SDS011;3582;51.506;11.948;2023-05-27T12:13:04;9.47;;;4.23;;
7080;SDS011;3582;51.506;11.948;2023-05-27T12:15:31;4.13;;;3.63;;
7080;SDS011;3582;51.506;11.948;2023-05-27T12:17:57;6.10;;;4.00;;
7080;SDS011;3582;51.506;11.948;2023-05-27T12:20:23;9.80;;;4.40;;
7080;SDS011;3582;51.506;11.948;2023-05-27T12:22:52;6.30;;;4.87;;
7080;SDS011;3582;51.506;11.948;2023-05-27T12:25:18;10.73;;;4.50;;
7080;SDS011;3582;51.506;11.948;2023-05-27T12:27:44;7.30;;;4.37;;
7080;SDS011;3582;51.506;11.948;2023-05-27T12:30:10;9.40;;;5.80;;
7080;SDS011;3582;51.506;11.948;2023-05-27T12:32:37;6.90;;;3.90;;
7080;SDS011;3582;51.506;11.948;2023-05-27T12:35:03;6.53;;;3.83;;
7080;SDS011;3582;51.506;11.948;2023-05-27T12:37:30;10.53;;;4.30;;
7080;SDS011;3582;51.506;11.948;2023-05-27T12:39:56;5.63;;;3.50;;
7080;SDS011;3582;51.506;11.948;2023-05-27T12:42:21;3.07;;;2.73;;
7080;SDS011;3582;51.506;11.948;2023-05-27T12:44:47;6.10;;;3.77;;
7080;SDS011;3582;51.506;11.948;2023-05-27T12:47:13;6.73;;;4.33;;
7080;SDS011;3582;51.506;11.948;2023-05-27T12:49:39;7.37;;;4.00;;
7080;SDS011;3582;51.506;11.948;2023-05-27T12:52:07;6.20;;;4.40;;
7080;SDS011;3582;51.506;11.948;2023-05-27T12:54:33;9.73;;;3.50;;
7080;SDS011;3582;51.506;11.948;2023-05-27T12:56:59;6.40;;;4.60;;
7080;SDS011;3582;51.506;11.948;2023-05-27T12:59:29;8.07;;;4.70;;
7080;SDS011;3582;51.506;11.948;2023-05-27T13:01:56;4.40;;;3.60;;
7080;SDS011;3582;51.506;11.948;2023-05-27T13:04:22;7.10;;;3.63;;
7080;SDS011;3582;51.506;11.948;2023-05-27T13:06:48;7.03;;;3.30;;
7080;SDS011;3582;51.506;11.948;2023-05-27T13:09:14;7.00;;;4.53;;
7080;SDS011;3582;51.506;11.948;2023-05-27T13:11:40;8.17;;;4.20;;
7080;SDS011;3582;51.506;11.948;2023-05-27T13:14:07;25.37;;;8.97;;
7080;SDS011;3582;51.506;11.948;2023-05-27T13:16:33;7.47;;;3.90;;
7080;SDS011;3582;51.506;11.948;2023-05-27T13:18:59;7.30;;;3.83;;
7080;SDS011;3582;51.506;11.948;2023-05-27T13:21:25;7.03;;;3.50;;
7080;SDS011;3582;51.506;11.948;2023-05-27T13:23:52;7.80;;;3.23;;
7080;SDS011;3582;51.506;11.948;2023-05-27T13:26:18;14.77;;;4.20;;
7080;SDS011;3582;51.506;11.948;2023-05-27T13:28:44;6.30;;;4.20;;
7080;SDS011;3582;51.506;11.948;2023-05-27T13:31:10;7.63;;;4.13;;
7080;SDS011;3582;51.506;11.948;2023-05-27T13:33:36;8.87;;;5.33;;
7080;SDS011;3582;51.506;11.948;2023-05-27T13:36:02;7.97;;;3.87;;
7080;SDS011;3582;51.506;11.948;2023-05-27T13:38:28;6.23;;;3.97;;
7080;SDS011;3582;51.506;11.948;2023-05-27T13:40:54;7.23;;;4.30;;
7080;SDS011;3582;51.506;11.948;2023-05-27T13:43:20;8.60;;;3.80;;
7080;SDS011;3582;51.506;11.948;2023-05-27T13:45:46;3.63;;;3.33;;
7080;SDS011;3582;51.506;11.948;2023-05-27T13:48:12;7.90;;;4.27;;
7080;SDS011;3582;51.506;11.948;2023-05-27T13:50:39;6.27;;;3.80;;
7080;SDS011;3582;51.506;11.948;2023-05-27T13:53:05;7.30;;;4.57;;
7080;SDS011;3582;51.506;11.948;2023-05-27T13:55:30;4.60;;;3.47;;
7080;SDS011;3582;51.506;11.948;2023-05-27T13:57:56;4.50;;;3.97;;
7080;SDS011;3582;51.506;11.948;2023-05-27T14:00:22;7.00;;;3.37;;
7080;SDS011;3582;51.506;11.948;2023-05-27T14:02:48;9.00;;;3.77;;
7080;SDS011;3582;51.506;11.948;2023-05-27T14:05:14;8.30;;;3.70;;
7080;SDS011;3582;51.506;11.948;2023-05-27T14:07:41;6.43;;;3.30;;
7080;SDS011;3582;51.506;11.948;2023-05-27T14:10:08;6.37;;;3.80;;
7080;SDS011;3582;51.506;11.948;2023-05-27T14:12:34;6.60;;;3.27;;
7080;SDS011;3582;51.506;11.948;2023-05-27T14:15:00;5.50;;;3.50;;
7080;SDS011;3582;51.506;11.948;2023-05-27T14:17:26;5.20;;;2.93;;
7080;SDS011;3582;51.506;11.948;2023-05-27T14:19:52;4.43;;;3.53;;
7080;SDS011;3582;51.506;11.948;2023-05-27T14:22:18;11.40;;;4.20;;
7080;SDS011;3582;51.506;11.948;2023-05-27T14:24:44;5.70;;;3.33;;
7080;SDS011;3582;51.506;11.948;2023-05-27T14:27:10;5.10;;;3.97;;
7080;SDS011;3582;51.506;11.948;2023-05-27T14:29:36;3.20;;;2.90;;
7080;SDS011;3582;51.506;11.948;2023-05-27T14:32:02;4.77;;;2.77;;
7080;SDS011;3582;51.506;11.948;2023-05-27T14:34:28;7.17;;;4.17;;
7080;SDS011;3582;51.506;11.948;2023-05-27T14:36:54;4.83;;;3.03;;
7080;SDS011;3582;51.506;11.948;2023-05-27T14:39:20;5.57;;;2.73;;
7080;SDS011;3582;51.506;11.948;2023-05-27T14:41:46;4.37;;;3.10;;
7080;SDS011;3582;51.506;11.948;2023-05-27T14:44:12;8.93;;;3.17;;
7080;SDS011;3582;51.506;11.948;2023-05-27T14:46:38;4.80;;;3.07;;
7080;SDS011;3582;51.506;11.948;2023-05-27T14:49:04;8.40;;;4.10;;
7080;SDS011;3582;51.506;11.948;2023-05-27T14:51:30;4.60;;;3.80;;
7080;SDS011;3582;51.506;11.948;2023-05-27T14:53:56;6.00;;;3.20;;
7080;SDS011;3582;51.506;11.948;2023-05-27T14:56:22;3.57;;;2.90;;
7080;SDS011;3582;51.506;11.948;2023-05-27T14:58:48;5.40;;;3.80;;
7080;SDS011;3582;51.506;11.948;2023-05-27T15:01:15;4.73;;;3.40;;